sensor_id;sensor_type;location;lat;lon;timestamp;temperature;humidity
19110;DHT22;9687;50.836;12.060;2022-10-16T00:09:04;20.30;91.50
19110;DHT22;9687;50.836;12.060;2022-10-16T00:11:33;20.30;91.50
19110;DHT22;9687;50.836;12.060;2022-10-16T00:14:04;20.30;91.60
19110;DHT22;9687;50.836;12.060;2022-10-16T00:16:32;20.30;91.70
19110;DHT22;9687;50.836;12.060;2022-10-16T00:19:00;20.30;91.70
19110;DHT22;9687;50.836;12.060;2022-10-16T00:21:29;20.30;91.70
19110;DHT22;9687;50.836;12.060;2022-10-16T00:23:59;20.30;91.70
19110;DHT22;9687;50.836;12.060;2022-10-16T00:26:30;20.40;91.80
19110;DHT22;9687;50.836;12.060;2022-10-16T00:28:58;20.30;91.70
19110;DHT22;9687;50.836;12.060;2022-10-16T00:31:26;20.40;91.80
19110;DHT22;9687;50.836;12.060;2022-10-16T00:33:54;20.30;91.70
19110;DHT22;9687;50.836;12.060;2022-10-16T00:36:23;20.40;91.70
19110;DHT22;9687;50.836;12.060;2022-10-16T00:38:52;20.30;91.70
19110;DHT22;9687;50.836;12.060;2022-10-16T00:41:22;20.40;91.70
19110;DHT22;9687;50.836;12.060;2022-10-16T00:43:52;20.30;91.70
19110;DHT22;9687;50.836;12.060;2022-10-16T00:46:23;20.40;91.70
19110;DHT22;9687;50.836;12.060;2022-10-16T00:48:56;20.30;91.70
19110;DHT22;9687;50.836;12.060;2022-10-16T00:51:26;20.30;91.70
19110;DHT22;9687;50.836;12.060;2022-10-16T00:53:55;20.30;91.70
19110;DHT22;9687;50.836;12.060;2022-10-16T00:56:23;20.30;91.70
19110;DHT22;9687;50.836;12.060;2022-10-16T00:58:52;20.30;91.70
19110;DHT22;9687;50.836;12.060;2022-10-16T01:01:20;20.30;91.90
19110;DHT22;9687;50.836;12.060;2022-10-16T01:03:47;20.30;91.90
19110;DHT22;9687;50.836;12.060;2022-10-16T01:06:31;20.30;92.00
19110;DHT22;9687;50.836;12.060;2022-10-16T02:10:38;19.80;93.10
19110;DHT22;9687;50.836;12.060;2022-10-16T02:13:09;19.90;93.50
19110;DHT22;9687;50.836;12.060;2022-10-16T02:15:37;19.90;93.10
19110;DHT22;9687;50.836;12.060;2022-10-16T02:18:06;19.90;93.10
19110;DHT22;9687;50.836;12.060;2022-10-16T02:20:38;19.80;92.80
19110;DHT22;9687;50.836;12.060;2022-10-16T02:23:12;19.80;93.10
19110;DHT22;9687;50.836;12.060;2022-10-16T02:25:44;19.90;93.00
19110;DHT22;9687;50.836;12.060;2022-10-16T02:28:17;19.90;92.90
19110;DHT22;9687;50.836;12.060;2022-10-16T02:30:47;19.90;92.90
19110;DHT22;9687;50.836;12.060;2022-10-16T02:33:16;19.90;92.80
19110;DHT22;9687;50.836;12.060;2022-10-16T02:35:46;19.90;92.80
19110;DHT22;9687;50.836;12.060;2022-10-16T02:38:16;19.90;92.70
19110;DHT22;9687;50.836;12.060;2022-10-16T02:40:46;19.90;92.70
19110;DHT22;9687;50.836;12.060;2022-10-16T02:43:13;19.90;92.60
19110;DHT22;9687;50.836;12.060;2022-10-16T02:45:41;19.90;92.60
19110;DHT22;9687;50.836;12.060;2022-10-16T02:48:08;20.00;92.60
19110;DHT22;9687;50.836;12.060;2022-10-16T02:50:36;20.00;92.50
19110;DHT22;9687;50.836;12.060;2022-10-16T02:53:03;20.00;92.40
19110;DHT22;9687;50.836;12.060;2022-10-16T02:55:31;20.00;92.40
19110;DHT22;9687;50.836;12.060;2022-10-16T02:58:00;20.00;92.30
19110;DHT22;9687;50.836;12.060;2022-10-16T03:00:27;20.00;92.20
19110;DHT22;9687;50.836;12.060;2022-10-16T03:02:55;20.00;92.20
19110;DHT22;9687;50.836;12.060;2022-10-16T03:05:22;20.00;92.10
19110;DHT22;9687;50.836;12.060;2022-10-16T03:07:50;20.00;92.00
19110;DHT22;9687;50.836;12.060;2022-10-16T03:10:18;20.00;91.90
19110;DHT22;9687;50.836;12.060;2022-10-16T03:12:46;20.00;91.80
19110;DHT22;9687;50.836;12.060;2022-10-16T03:15:15;20.00;91.80
19110;DHT22;9687;50.836;12.060;2022-10-16T03:17:42;20.00;91.70
19110;DHT22;9687;50.836;12.060;2022-10-16T03:20:10;20.00;91.70
19110;DHT22;9687;50.836;12.060;2022-10-16T03:22:38;20.00;91.60
19110;DHT22;9687;50.836;12.060;2022-10-16T03:25:07;20.00;91.60
19110;DHT22;9687;50.836;12.060;2022-10-16T03:27:35;19.90;91.50
19110;DHT22;9687;50.836;12.060;2022-10-16T03:30:03;20.00;91.60
19110;DHT22;9687;50.836;12.060;2022-10-16T03:32:32;19.90;91.60
19110;DHT22;9687;50.836;12.060;2022-10-16T03:34:59;19.90;91.60
19110;DHT22;9687;50.836;12.060;2022-10-16T03:37:27;19.90;91.90
19110;DHT22;9687;50.836;12.060;2022-10-16T03:39:54;19.90;91.60
19110;DHT22;9687;50.836;12.060;2022-10-16T03:44:50;19.90;91.20
19110;DHT22;9687;50.836;12.060;2022-10-16T03:47:18;19.90;91.50
19110;DHT22;9687;50.836;12.060;2022-10-16T03:49:49;19.90;91.40
19110;DHT22;9687;50.836;12.060;2022-10-16T03:52:16;19.90;91.00
19110;DHT22;9687;50.836;12.060;2022-10-16T03:54:46;19.90;91.30
19110;DHT22;9687;50.836;12.060;2022-10-16T03:57:13;19.90;91.20
19110;DHT22;9687;50.836;12.060;2022-10-16T03:59:41;19.90;91.20
19110;DHT22;9687;50.836;12.060;2022-10-16T04:02:08;19.90;91.20
19110;DHT22;9687;50.836;12.060;2022-10-16T04:04:36;19.90;91.20
19110;DHT22;9687;50.836;12.060;2022-10-16T04:07:05;19.90;91.20
19110;DHT22;9687;50.836;12.060;2022-10-16T04:09:34;19.90;91.10
19110;DHT22;9687;50.836;12.060;2022-10-16T04:12:01;19.90;91.10
19110;DHT22;9687;50.836;12.060;2022-10-16T04:14:29;19.90;91.10
19110;DHT22;9687;50.836;12.060;2022-10-16T04:16:56;19.90;91.10
19110;DHT22;9687;50.836;12.060;2022-10-16T04:21:52;19.80;90.70
19110;DHT22;9687;50.836;12.060;2022-10-16T04:24:20;19.80;91.00
19110;DHT22;9687;50.836;12.060;2022-10-16T04:26:48;19.80;91.00
19110;DHT22;9687;50.836;12.060;2022-10-16T04:29:15;19.80;91.00
19110;DHT22;9687;50.836;12.060;2022-10-16T04:31:42;19.80;91.10
19110;DHT22;9687;50.836;12.060;2022-10-16T04:34:10;19.70;91.10
19110;DHT22;9687;50.836;12.060;2022-10-16T04:36:37;19.70;91.10
19110;DHT22;9687;50.836;12.060;2022-10-16T04:39:05;19.70;91.20
19110;DHT22;9687;50.836;12.060;2022-10-16T04:41:34;19.60;91.30
19110;DHT22;9687;50.836;12.060;2022-10-16T04:44:01;19.60;91.50
19110;DHT22;9687;50.836;12.060;2022-10-16T04:46:28;19.60;91.60
19110;DHT22;9687;50.836;12.060;2022-10-16T04:48:56;19.50;91.70
19110;DHT22;9687;50.836;12.060;2022-10-16T04:51:23;19.60;91.80
19110;DHT22;9687;50.836;12.060;2022-10-16T04:53:51;19.50;91.80
19110;DHT22;9687;50.836;12.060;2022-10-16T04:56:19;19.50;91.80
19110;DHT22;9687;50.836;12.060;2022-10-16T04:58:48;19.50;91.80
19110;DHT22;9687;50.836;12.060;2022-10-16T05:01:16;19.60;91.80
19110;DHT22;9687;50.836;12.060;2022-10-16T05:03:43;19.60;91.80
19110;DHT22;9687;50.836;12.060;2022-10-16T05:06:10;19.60;91.80
19110;DHT22;9687;50.836;12.060;2022-10-16T05:08:38;19.60;91.80
19110;DHT22;9687;50.836;12.060;2022-10-16T05:11:05;19.60;91.70
19110;DHT22;9687;50.836;12.060;2022-10-16T05:13:33;19.60;91.90
19110;DHT22;9687;50.836;12.060;2022-10-16T05:16:01;19.60;92.00
19110;DHT22;9687;50.836;12.060;2022-10-16T05:18:29;19.60;92.00
19110;DHT22;9687;50.836;12.060;2022-10-16T05:20:56;19.60;92.10
19110;DHT22;9687;50.836;12.060;2022-10-16T05:23:24;19.60;92.10
19110;DHT22;9687;50.836;12.060;2022-10-16T05:25:55;19.60;92.10
19110;DHT22;9687;50.836;12.060;2022-10-16T05:28:24;19.60;92.10
19110;DHT22;9687;50.836;12.060;2022-10-16T05:30:52;19.60;92.20
19110;DHT22;9687;50.836;12.060;2022-10-16T05:33:22;19.60;92.20
19110;DHT22;9687;50.836;12.060;2022-10-16T05:35:49;19.60;92.20
19110;DHT22;9687;50.836;12.060;2022-10-16T05:38:17;19.60;92.20
19110;DHT22;9687;50.836;12.060;2022-10-16T05:40:51;19.60;92.20
19110;DHT22;9687;50.836;12.060;2022-10-16T05:43:18;19.60;92.20
19110;DHT22;9687;50.836;12.060;2022-10-16T05:45:55;19.70;92.20
19110;DHT22;9687;50.836;12.060;2022-10-16T05:48:25;19.70;91.80
19110;DHT22;9687;50.836;12.060;2022-10-16T05:50:57;19.70;92.10
19110;DHT22;9687;50.836;12.060;2022-10-16T05:53:26;19.70;92.40
19110;DHT22;9687;50.836;12.060;2022-10-16T05:55:54;19.70;92.00
19110;DHT22;9687;50.836;12.060;2022-10-16T05:58:23;19.70;92.40
19110;DHT22;9687;50.836;12.060;2022-10-16T06:00:55;19.70;92.00
19110;DHT22;9687;50.836;12.060;2022-10-16T06:03:24;19.70;92.00
19110;DHT22;9687;50.836;12.060;2022-10-16T06:05:52;19.70;92.00
19110;DHT22;9687;50.836;12.060;2022-10-16T06:08:21;19.80;92.00
19110;DHT22;9687;50.836;12.060;2022-10-16T06:10:49;19.80;92.00
19110;DHT22;9687;50.836;12.060;2022-10-16T06:13:16;19.80;92.00
19110;DHT22;9687;50.836;12.060;2022-10-16T06:15:44;19.80;91.90
19110;DHT22;9687;50.836;12.060;2022-10-16T06:18:12;19.90;92.00
19110;DHT22;9687;50.836;12.060;2022-10-16T06:20:41;19.90;92.00
19110;DHT22;9687;50.836;12.060;2022-10-16T06:23:08;19.80;91.90
19110;DHT22;9687;50.836;12.060;2022-10-16T06:25:36;19.90;91.60
19110;DHT22;9687;50.836;12.060;2022-10-16T06:28:03;19.90;91.90
19110;DHT22;9687;50.836;12.060;2022-10-16T06:30:31;19.90;91.90
19110;DHT22;9687;50.836;12.060;2022-10-16T06:32:58;19.90;91.90
19110;DHT22;9687;50.836;12.060;2022-10-16T06:35:25;19.90;91.60
19110;DHT22;9687;50.836;12.060;2022-10-16T06:37:56;19.90;92.00
19110;DHT22;9687;50.836;12.060;2022-10-16T06:40:24;19.90;92.10
19110;DHT22;9687;50.836;12.060;2022-10-16T06:42:51;20.00;92.30
19110;DHT22;9687;50.836;12.060;2022-10-16T06:45:21;20.00;92.40
19110;DHT22;9687;50.836;12.060;2022-10-16T06:47:51;20.00;92.50
19110;DHT22;9687;50.836;12.060;2022-10-16T06:50:19;20.10;92.70
19110;DHT22;9687;50.836;12.060;2022-10-16T06:52:46;20.00;92.80
19110;DHT22;9687;50.836;12.060;2022-10-16T06:55:16;20.10;92.90
19110;DHT22;9687;50.836;12.060;2022-10-16T06:57:47;20.10;92.90
19110;DHT22;9687;50.836;12.060;2022-10-16T07:00:14;20.00;92.80
19110;DHT22;9687;50.836;12.060;2022-10-16T07:02:42;20.10;92.90
19110;DHT22;9687;50.836;12.060;2022-10-16T07:05:09;20.10;93.00
19110;DHT22;9687;50.836;12.060;2022-10-16T07:07:37;20.10;93.10
19110;DHT22;9687;50.836;12.060;2022-10-16T07:10:05;20.10;93.20
19110;DHT22;9687;50.836;12.060;2022-10-16T07:12:34;20.10;93.20
19110;DHT22;9687;50.836;12.060;2022-10-16T07:15:01;20.10;93.20
19110;DHT22;9687;50.836;12.060;2022-10-16T07:17:29;20.10;93.20
19110;DHT22;9687;50.836;12.060;2022-10-16T07:19:56;20.10;93.10
19110;DHT22;9687;50.836;12.060;2022-10-16T07:22:23;20.10;93.10
19110;DHT22;9687;50.836;12.060;2022-10-16T07:24:51;20.20;93.10
19110;DHT22;9687;50.836;12.060;2022-10-16T07:27:18;20.10;92.90
19110;DHT22;9687;50.836;12.060;2022-10-16T07:29:49;20.10;92.90
19110;DHT22;9687;50.836;12.060;2022-10-16T07:32:16;20.10;93.00
19110;DHT22;9687;50.836;12.060;2022-10-16T07:34:44;20.10;93.00
19110;DHT22;9687;50.836;12.060;2022-10-16T07:37:11;20.10;93.00
19110;DHT22;9687;50.836;12.060;2022-10-16T07:39:39;20.10;93.10
19110;DHT22;9687;50.836;12.060;2022-10-16T07:42:07;20.10;93.10
19110;DHT22;9687;50.836;12.060;2022-10-16T07:44:35;20.10;93.20
19110;DHT22;9687;50.836;12.060;2022-10-16T07:47:04;20.20;93.30
19110;DHT22;9687;50.836;12.060;2022-10-16T07:49:32;20.20;93.30
19110;DHT22;9687;50.836;12.060;2022-10-16T07:51:59;20.20;93.30
19110;DHT22;9687;50.836;12.060;2022-10-16T07:54:27;20.20;93.30
19110;DHT22;9687;50.836;12.060;2022-10-16T07:56:54;20.20;93.30
19110;DHT22;9687;50.836;12.060;2022-10-16T07:59:21;20.30;93.30
19110;DHT22;9687;50.836;12.060;2022-10-16T08:01:50;20.30;93.30
19110;DHT22;9687;50.836;12.060;2022-10-16T08:04:20;20.30;93.40
19110;DHT22;9687;50.836;12.060;2022-10-16T08:06:49;20.30;93.50
19110;DHT22;9687;50.836;12.060;2022-10-16T08:09:21;20.30;93.50
19110;DHT22;9687;50.836;12.060;2022-10-16T08:11:52;20.40;93.50
19110;DHT22;9687;50.836;12.060;2022-10-16T08:14:20;20.40;93.50
19110;DHT22;9687;50.836;12.060;2022-10-16T14:22:27;23.60;79.80
19110;DHT22;9687;50.836;12.060;2022-10-16T14:24:57;23.60;79.80
19110;DHT22;9687;50.836;12.060;2022-10-16T14:27:33;23.60;79.60
19110;DHT22;9687;50.836;12.060;2022-10-16T14:30:21;23.60;79.80
19110;DHT22;9687;50.836;12.060;2022-10-16T14:32:57;23.50;79.10
19110;DHT22;9687;50.836;12.060;2022-10-16T14:35:31;23.60;79.30
19110;DHT22;9687;50.836;12.060;2022-10-16T14:38:05;23.60;79.30
19110;DHT22;9687;50.836;12.060;2022-10-16T14:40:37;23.60;79.30
19110;DHT22;9687;50.836;12.060;2022-10-16T14:43:14;23.60;79.50
19110;DHT22;9687;50.836;12.060;2022-10-16T14:45:52;23.60;79.60
19110;DHT22;9687;50.836;12.060;2022-10-16T14:48:28;23.60;79.70
19110;DHT22;9687;50.836;12.060;2022-10-16T14:51:08;23.60;79.70
19110;DHT22;9687;50.836;12.060;2022-10-16T14:53:47;23.60;79.60
19110;DHT22;9687;50.836;12.060;2022-10-16T14:56:20;23.60;79.70
19110;DHT22;9687;50.836;12.060;2022-10-16T14:58:51;23.60;79.80
19110;DHT22;9687;50.836;12.060;2022-10-16T15:01:29;23.60;79.70
19110;DHT22;9687;50.836;12.060;2022-10-16T15:04:03;23.50;79.50
19110;DHT22;9687;50.836;12.060;2022-10-16T15:06:43;23.60;79.70
19110;DHT22;9687;50.836;12.060;2022-10-16T15:09:22;23.50;79.40
19110;DHT22;9687;50.836;12.060;2022-10-16T15:11:52;23.50;79.80
19110;DHT22;9687;50.836;12.060;2022-10-16T15:14:24;23.50;79.70
19110;DHT22;9687;50.836;12.060;2022-10-16T15:16:57;23.50;79.80
19110;DHT22;9687;50.836;12.060;2022-10-16T15:19:35;23.50;80.00
19110;DHT22;9687;50.836;12.060;2022-10-16T17:23:46;22.10;83.40
19110;DHT22;9687;50.836;12.060;2022-10-16T17:26:15;22.10;83.60
19110;DHT22;9687;50.836;12.060;2022-10-16T17:28:43;22.00;83.70
19110;DHT22;9687;50.836;12.060;2022-10-16T17:31:13;22.10;84.00
19110;DHT22;9687;50.836;12.060;2022-10-16T17:33:41;22.00;83.90
19110;DHT22;9687;50.836;12.060;2022-10-16T17:36:10;22.00;84.00
19110;DHT22;9687;50.836;12.060;2022-10-16T17:38:39;22.00;84.20
19110;DHT22;9687;50.836;12.060;2022-10-16T17:41:13;21.90;84.40
19110;DHT22;9687;50.836;12.060;2022-10-16T17:43:41;21.90;84.50
19110;DHT22;9687;50.836;12.060;2022-10-16T17:46:10;21.80;84.60
19110;DHT22;9687;50.836;12.060;2022-10-16T17:48:38;21.80;84.90
19110;DHT22;9687;50.836;12.060;2022-10-16T17:51:06;21.80;85.10
19110;DHT22;9687;50.836;12.060;2022-10-16T17:53:34;21.80;85.30
19110;DHT22;9687;50.836;12.060;2022-10-16T17:56:03;21.80;85.50
19110;DHT22;9687;50.836;12.060;2022-10-16T17:58:33;21.80;85.70
19110;DHT22;9687;50.836;12.060;2022-10-16T18:01:00;21.80;86.00
19110;DHT22;9687;50.836;12.060;2022-10-16T18:03:28;21.70;86.10
19110;DHT22;9687;50.836;12.060;2022-10-16T18:05:55;21.80;86.20
19110;DHT22;9687;50.836;12.060;2022-10-16T18:08:23;21.70;86.30
19110;DHT22;9687;50.836;12.060;2022-10-16T18:10:50;21.70;86.40
19110;DHT22;9687;50.836;12.060;2022-10-16T18:13:18;21.70;86.60
19110;DHT22;9687;50.836;12.060;2022-10-16T18:15:47;21.70;86.90
19110;DHT22;9687;50.836;12.060;2022-10-16T18:18:14;21.70;87.20
19110;DHT22;9687;50.836;12.060;2022-10-16T18:20:44;21.70;87.40
19110;DHT22;9687;50.836;12.060;2022-10-16T18:23:12;21.70;87.70
19110;DHT22;9687;50.836;12.060;2022-10-16T18:25:39;21.70;87.90
19110;DHT22;9687;50.836;12.060;2022-10-16T18:28:07;21.70;88.00
19110;DHT22;9687;50.836;12.060;2022-10-16T18:30:34;21.70;88.70
19110;DHT22;9687;50.836;12.060;2022-10-16T18:33:03;21.70;88.00
19110;DHT22;9687;50.836;12.060;2022-10-16T18:35:30;21.80;88.10
19110;DHT22;9687;50.836;12.060;2022-10-16T18:37:57;21.80;88.10
19110;DHT22;9687;50.836;12.060;2022-10-16T18:40:25;21.80;88.10
19110;DHT22;9687;50.836;12.060;2022-10-16T18:42:53;21.80;88.10
19110;DHT22;9687;50.836;12.060;2022-10-16T18:45:21;21.80;88.10
19110;DHT22;9687;50.836;12.060;2022-10-16T18:47:48;21.80;88.10
19110;DHT22;9687;50.836;12.060;2022-10-16T18:50:17;21.80;88.10
19110;DHT22;9687;50.836;12.060;2022-10-16T18:52:46;21.90;88.20
19110;DHT22;9687;50.836;12.060;2022-10-16T18:55:14;21.90;88.20
19110;DHT22;9687;50.836;12.060;2022-10-16T18:57:43;21.90;88.20
19110;DHT22;9687;50.836;12.060;2022-10-16T19:00:10;21.90;88.20
19110;DHT22;9687;50.836;12.060;2022-10-16T19:02:38;21.80;88.10
19110;DHT22;9687;50.836;12.060;2022-10-16T19:05:06;21.80;88.20
19110;DHT22;9687;50.836;12.060;2022-10-16T19:07:36;21.80;88.30
19110;DHT22;9687;50.836;12.060;2022-10-16T19:10:04;21.80;88.40
19110;DHT22;9687;50.836;12.060;2022-10-16T19:12:31;21.80;88.40
19110;DHT22;9687;50.836;12.060;2022-10-16T19:14:58;21.80;88.50
19110;DHT22;9687;50.836;12.060;2022-10-16T19:17:26;21.80;88.60
19110;DHT22;9687;50.836;12.060;2022-10-16T19:19:53;21.80;88.70
19110;DHT22;9687;50.836;12.060;2022-10-16T19:22:22;21.80;88.60
19110;DHT22;9687;50.836;12.060;2022-10-16T19:25:08;21.80;88.50
19110;DHT22;9687;50.836;12.060;2022-10-16T19:27:35;21.80;88.40
19110;DHT22;9687;50.836;12.060;2022-10-16T19:30:03;21.80;88.30
19110;DHT22;9687;50.836;12.060;2022-10-16T19:32:31;21.80;88.20
19110;DHT22;9687;50.836;12.060;2022-10-16T19:34:58;21.80;88.30
19110;DHT22;9687;50.836;12.060;2022-10-16T19:37:26;21.80;88.40
19110;DHT22;9687;50.836;12.060;2022-10-16T19:39:53;21.80;88.10
19110;DHT22;9687;50.836;12.060;2022-10-16T19:42:22;21.80;88.10
19110;DHT22;9687;50.836;12.060;2022-10-16T19:44:50;21.80;88.10
19110;DHT22;9687;50.836;12.060;2022-10-16T19:47:17;21.80;88.10
19110;DHT22;9687;50.836;12.060;2022-10-16T19:49:44;21.80;88.10
19110;DHT22;9687;50.836;12.060;2022-10-16T19:52:12;21.80;88.10
19110;DHT22;9687;50.836;12.060;2022-10-16T19:54:39;21.70;88.00
19110;DHT22;9687;50.836;12.060;2022-10-16T19:57:07;21.70;88.00
19110;DHT22;9687;50.836;12.060;2022-10-16T19:59:36;21.70;88.00
19110;DHT22;9687;50.836;12.060;2022-10-16T20:02:03;21.70;88.00
19110;DHT22;9687;50.836;12.060;2022-10-16T20:04:31;21.60;87.90
19110;DHT22;9687;50.836;12.060;2022-10-16T20:06:58;21.60;88.20
19110;DHT22;9687;50.836;12.060;2022-10-16T20:09:25;21.60;88.40
19110;DHT22;9687;50.836;12.060;2022-10-16T20:11:54;21.60;88.60
19110;DHT22;9687;50.836;12.060;2022-10-16T20:14:22;21.60;88.80
19110;DHT22;9687;50.836;12.060;2022-10-16T20:16:51;21.50;88.70
19110;DHT22;9687;50.836;12.060;2022-10-16T20:19:19;21.50;88.90
19110;DHT22;9687;50.836;12.060;2022-10-16T20:21:47;21.50;89.00
19110;DHT22;9687;50.836;12.060;2022-10-16T20:24:14;21.50;89.10
19110;DHT22;9687;50.836;12.060;2022-10-16T20:26:43;21.50;89.30
19110;DHT22;9687;50.836;12.060;2022-10-16T20:29:10;21.50;89.50
19110;DHT22;9687;50.836;12.060;2022-10-16T20:31:39;21.50;89.50
19110;DHT22;9687;50.836;12.060;2022-10-16T20:34:10;21.50;89.60
19110;DHT22;9687;50.836;12.060;2022-10-16T20:36:39;21.40;89.20
19110;DHT22;9687;50.836;12.060;2022-10-16T20:39:09;21.40;89.30
19110;DHT22;9687;50.836;12.060;2022-10-16T20:41:38;21.40;89.50
19110;DHT22;9687;50.836;12.060;2022-10-16T20:44:06;21.30;89.50
19110;DHT22;9687;50.836;12.060;2022-10-16T20:46:34;21.30;89.70
19110;DHT22;9687;50.836;12.060;2022-10-16T20:49:01;21.30;89.80
19110;DHT22;9687;50.836;12.060;2022-10-16T20:51:31;21.30;89.80
19110;DHT22;9687;50.836;12.060;2022-10-16T20:53:59;21.30;89.80
19110;DHT22;9687;50.836;12.060;2022-10-16T20:56:31;21.30;89.80
19110;DHT22;9687;50.836;12.060;2022-10-16T20:58:59;21.30;89.90
19110;DHT22;9687;50.836;12.060;2022-10-16T21:01:27;21.30;89.90
19110;DHT22;9687;50.836;12.060;2022-10-16T21:03:58;21.30;89.80
19110;DHT22;9687;50.836;12.060;2022-10-16T21:06:27;21.30;89.80
19110;DHT22;9687;50.836;12.060;2022-10-16T21:08:57;21.30;89.80
19110;DHT22;9687;50.836;12.060;2022-10-16T21:11:29;21.30;89.60
19110;DHT22;9687;50.836;12.060;2022-10-16T21:13:59;21.30;89.50
19110;DHT22;9687;50.836;12.060;2022-10-16T21:16:27;22.20;90.10
19110;DHT22;9687;50.836;12.060;2022-10-16T21:18:55;21.20;89.50
19110;DHT22;9687;50.836;12.060;2022-10-16T21:21:25;21.20;89.60
